createdAt,value
2023-08-27T00:00:30.878Z,4.22
2023-08-27T00:02:57.733Z,3.92
2023-08-27T00:05:24.742Z,3.72
2023-08-27T00:07:51.374Z,3.80
2023-08-27T00:10:17.957Z,3.80
2023-08-27T00:12:44.589Z,3.83
2023-08-27T00:15:11.357Z,3.10
2023-08-27T00:17:38.054Z,3.50
2023-08-27T00:20:08.255Z,3.88
2023-08-27T00:22:34.883Z,3.65
2023-08-27T00:25:01.491Z,3.65
2023-08-27T00:27:28.132Z,3.70
2023-08-27T00:29:54.757Z,2.92
2023-08-27T00:32:26.087Z,3.70
2023-08-27T00:34:54.546Z,2.90
2023-08-27T00:37:22.505Z,3.45
2023-08-27T00:39:49.604Z,3.50
2023-08-27T00:42:16.277Z,3.60
2023-08-27T00:44:42.919Z,3.63
2023-08-27T00:47:09.816Z,3.40
2023-08-27T00:49:36.618Z,3.30
2023-08-27T00:52:03.908Z,3.35
2023-08-27T00:54:30.824Z,3.00
2023-08-27T00:56:57.452Z,3.10
2023-08-27T00:59:24.145Z,3.28
2023-08-27T01:01:52.464Z,3.15
2023-08-27T01:04:19.110Z,3.00
2023-08-27T01:06:45.652Z,3.67
2023-08-27T01:09:15.032Z,3.53
2023-08-27T01:11:41.845Z,3.22
2023-08-27T01:14:10.740Z,3.20
2023-08-27T01:16:38.640Z,3.22
2023-08-27T01:19:07.796Z,3.30
2023-08-27T01:21:34.335Z,3.13
2023-08-27T01:24:00.912Z,3.40
2023-08-27T01:26:40.155Z,3.42
2023-08-27T01:29:16.978Z,3.22
2023-08-27T01:31:48.559Z,3.33
2023-08-27T01:34:15.790Z,3.22
2023-08-27T01:36:43.038Z,3.03
2023-08-27T01:39:12.780Z,3.17
2023-08-27T01:41:39.389Z,3.30
2023-08-27T01:44:06.050Z,2.85
2023-08-27T01:46:33.649Z,3.40
2023-08-27T01:49:00.758Z,3.00
2023-08-27T01:51:27.440Z,2.88
2023-08-27T01:53:54.053Z,3.05
2023-08-27T01:56:21.422Z,3.03
2023-08-27T01:58:48.032Z,2.97
2023-08-27T02:01:14.633Z,3.40
2023-08-27T02:03:41.303Z,3.15
2023-08-27T02:06:08.065Z,3.30
2023-08-27T02:08:34.592Z,2.83
2023-08-27T02:11:01.415Z,3.17
2023-08-27T02:13:27.998Z,3.63
2023-08-27T02:15:54.601Z,2.92
2023-08-27T02:18:21.991Z,3.15
2023-08-27T02:20:48.580Z,3.20
2023-08-27T02:23:15.184Z,3.10
2023-08-27T02:25:43.063Z,3.70
2023-08-27T02:28:09.712Z,3.40
2023-08-27T02:30:36.359Z,3.47
2023-08-27T02:33:03.319Z,3.25
2023-08-27T02:35:30.314Z,3.72
2023-08-27T02:37:56.996Z,3.95
2023-08-27T02:40:23.671Z,3.97
2023-08-27T02:42:50.437Z,3.95
2023-08-27T02:45:18.349Z,3.65
2023-08-27T02:47:44.944Z,3.25
2023-08-27T02:50:11.702Z,4.10
2023-08-27T02:52:38.369Z,3.55
2023-08-27T02:55:05.275Z,3.92
2023-08-27T02:57:32.105Z,4.32
2023-08-27T02:59:58.711Z,4.20
2023-08-27T03:02:27.311Z,3.83
2023-08-27T03:04:54.081Z,4.07
2023-08-27T03:07:20.814Z,4.07
2023-08-27T03:09:48.900Z,3.95
2023-08-27T03:12:17.785Z,4.40
2023-08-27T03:14:44.468Z,4.18
2023-08-27T03:17:11.040Z,4.18
2023-08-27T03:19:37.600Z,4.93
2023-08-27T03:22:04.480Z,4.60
2023-08-27T03:24:31.197Z,4.82
2023-08-27T03:26:57.902Z,3.47
2023-08-27T03:29:24.795Z,3.78
2023-08-27T03:31:53.015Z,4.13
2023-08-27T03:34:19.677Z,4.20
2023-08-27T03:36:46.350Z,4.20
2023-08-27T03:39:13.136Z,4.10
2023-08-27T03:41:39.786Z,3.70
2023-08-27T03:44:06.426Z,4.13
2023-08-27T03:46:33.242Z,3.78
2023-08-27T03:49:01.578Z,4.63
2023-08-27T03:51:31.413Z,4.50
2023-08-27T03:54:01.424Z,3.95
2023-08-27T03:56:28.354Z,4.18
2023-08-27T03:58:54.973Z,4.00
2023-08-27T04:01:21.827Z,4.30
2023-08-27T04:03:48.535Z,3.92
2023-08-27T04:06:15.107Z,4.00
2023-08-27T04:08:41.696Z,4.03
2023-08-27T04:11:08.726Z,3.55
2023-08-27T04:13:36.527Z,3.78
2023-08-27T04:16:04.212Z,3.28
2023-08-27T04:18:31.264Z,3.78
2023-08-27T04:20:57.857Z,4.10
2023-08-27T04:23:25.674Z,3.90
2023-08-27T04:25:53.424Z,4.13
2023-08-27T04:28:20.595Z,3.28
2023-08-27T04:30:48.726Z,3.38
2023-08-27T04:33:15.801Z,3.92
2023-08-27T04:35:43.423Z,4.03
2023-08-27T04:38:12.055Z,3.78
2023-08-27T04:40:40.348Z,4.00
2023-08-27T04:43:07.011Z,4.00
2023-08-27T04:45:33.836Z,4.53
2023-08-27T04:48:01.094Z,3.70
2023-08-27T04:50:28.213Z,4.05
2023-08-27T04:52:54.843Z,3.60
2023-08-27T04:55:21.408Z,3.60
2023-08-27T04:57:48.004Z,3.50
2023-08-27T05:00:18.040Z,3.58
2023-08-27T05:02:44.655Z,3.45
2023-08-27T05:05:11.240Z,2.97
2023-08-27T05:07:38.614Z,3.05
2023-08-27T05:10:06.110Z,3.30
2023-08-27T05:12:32.716Z,3.15
2023-08-27T05:14:59.517Z,3.08
2023-08-27T05:17:26.163Z,2.47
2023-08-27T05:19:52.925Z,2.88
2023-08-27T05:22:21.000Z,2.92
2023-08-27T05:24:48.965Z,2.83
2023-08-27T05:27:15.635Z,3.38
2023-08-27T05:29:42.327Z,2.78
2023-08-27T05:32:09.054Z,2.72
2023-08-27T05:34:35.885Z,2.90
2023-08-27T05:37:02.463Z,2.15
2023-08-27T05:39:31.690Z,2.97
2023-08-27T05:41:58.404Z,2.92
2023-08-27T05:44:25.067Z,2.90
2023-08-27T05:46:52.203Z,2.90
2023-08-27T05:49:20.316Z,3.42
2023-08-27T05:51:47.740Z,2.83
2023-08-27T05:54:14.921Z,2.55
2023-08-27T05:56:41.653Z,2.75
2023-08-27T05:59:10.326Z,2.80
2023-08-27T06:01:37.149Z,2.72
2023-08-27T06:04:04.457Z,2.85
2023-08-27T06:06:31.145Z,2.70
2023-08-27T06:08:57.847Z,3.63
2023-08-27T06:11:24.591Z,2.83
2023-08-27T06:13:51.398Z,2.65
2023-08-27T06:16:18.520Z,2.92
2023-08-27T06:18:45.138Z,3.45
2023-08-27T06:21:12.082Z,3.67
2023-08-27T06:23:39.013Z,2.58
2023-08-27T06:26:07.050Z,3.20
2023-08-27T06:28:34.151Z,3.67
2023-08-27T06:31:01.326Z,3.45
2023-08-27T06:33:28.447Z,3.13
2023-08-27T06:35:55.068Z,2.90
2023-08-27T06:38:21.707Z,3.13
2023-08-27T06:40:48.391Z,2.83
2023-08-27T06:43:15.536Z,3.50
2023-08-27T06:45:46.972Z,2.80
2023-08-27T06:48:13.694Z,3.10
2023-08-27T06:50:41.037Z,3.08
2023-08-27T06:53:07.750Z,3.13
2023-08-27T06:55:34.328Z,3.60
2023-08-27T06:58:02.647Z,3.58
2023-08-27T07:00:32.419Z,3.70
2023-08-27T07:02:59.978Z,3.85
2023-08-27T07:05:26.981Z,4.30
2023-08-27T07:07:53.591Z,3.53
2023-08-27T07:10:20.257Z,4.55
2023-08-27T07:12:47.192Z,3.75
2023-08-27T07:15:14.536Z,3.95
2023-08-27T07:17:42.444Z,4.25
2023-08-27T07:20:10.475Z,4.70
2023-08-27T07:22:37.193Z,5.32
2023-08-27T07:25:04.624Z,6.15
2023-08-27T07:27:31.335Z,6.13
2023-08-27T07:29:58.056Z,5.53
2023-08-27T07:32:24.740Z,5.70
2023-08-27T07:34:51.412Z,6.40
2023-08-27T07:37:20.197Z,7.47
2023-08-27T07:39:46.740Z,6.95
2023-08-27T07:42:13.533Z,6.32
2023-08-27T07:44:40.371Z,6.38
2023-08-27T07:47:08.251Z,5.97
2023-08-27T07:49:35.041Z,7.00
2023-08-27T07:52:03.776Z,7.30
2023-08-27T07:54:30.571Z,7.22
2023-08-27T07:56:58.735Z,6.47
2023-08-27T07:59:25.507Z,6.85
2023-08-27T08:01:52.480Z,6.10
2023-08-27T08:04:19.524Z,5.82
2023-08-27T08:06:46.092Z,5.38
2023-08-27T08:09:14.675Z,6.25
2023-08-27T08:11:41.350Z,6.15
2023-08-27T08:14:08.038Z,4.85
2023-08-27T08:16:34.647Z,5.28
2023-08-27T08:19:01.486Z,4.82
2023-08-27T08:21:28.319Z,4.65
2023-08-27T08:23:54.855Z,4.47
2023-08-27T08:26:21.706Z,3.80
2023-08-27T08:28:49.213Z,4.25
2023-08-27T08:31:16.011Z,3.90
2023-08-27T08:33:42.807Z,3.45
2023-08-27T08:36:09.410Z,3.00
2023-08-27T08:38:36.214Z,3.08
2023-08-27T08:41:03.862Z,3.78
2023-08-27T08:43:38.539Z,3.25
2023-08-27T08:46:09.744Z,1.60
2023-08-27T08:48:42.171Z,0.80
2023-08-27T08:51:10.289Z,1.00
2023-08-27T08:53:38.234Z,1.15
2023-08-27T08:56:08.072Z,1.15
2023-08-27T08:58:36.719Z,1.27
2023-08-27T09:01:05.131Z,1.58
2023-08-27T09:03:32.902Z,1.60
2023-08-27T09:06:00.015Z,1.90
2023-08-27T09:08:26.813Z,1.98
2023-08-27T09:10:54.241Z,1.48
2023-08-27T09:13:21.708Z,1.02
2023-08-27T09:15:48.943Z,0.98
2023-08-27T09:18:16.254Z,0.80
2023-08-27T09:20:43.390Z,0.85
2023-08-27T09:23:10.722Z,1.00
2023-08-27T09:25:38.490Z,0.60
2023-08-27T09:28:05.889Z,0.60
2023-08-27T09:30:32.826Z,0.60
2023-08-27T09:32:59.622Z,0.60
2023-08-27T09:35:42.464Z,0.77
2023-08-27T09:38:13.044Z,0.60
2023-08-27T09:40:40.929Z,0.65
2023-08-27T09:43:08.698Z,0.50
2023-08-27T09:45:35.923Z,0.50
2023-08-27T09:48:04.235Z,0.70
2023-08-27T09:50:32.092Z,0.40
2023-08-27T09:53:09.275Z,0.60
2023-08-27T09:55:35.934Z,0.65
2023-08-27T09:58:03.961Z,1.00
2023-08-27T10:00:31.138Z,0.95
2023-08-27T10:02:58.173Z,1.83
2023-08-27T10:05:32.779Z,0.77
2023-08-27T10:08:01.087Z,0.40
2023-08-27T10:10:28.470Z,0.90
2023-08-27T10:12:55.548Z,1.38
2023-08-27T10:15:26.799Z,3.28
2023-08-27T10:17:54.560Z,6.18
2023-08-27T10:20:21.468Z,5.85
2023-08-27T10:22:48.360Z,5.93
2023-08-27T10:25:19.079Z,4.80
2023-08-27T10:27:47.193Z,4.20
2023-08-27T10:30:15.014Z,3.67
2023-08-27T10:32:41.857Z,3.00
2023-08-27T10:35:09.750Z,3.45
2023-08-27T10:37:38.111Z,2.95
2023-08-27T10:40:09.950Z,2.45
2023-08-27T10:42:40.426Z,2.58
2023-08-27T10:45:11.177Z,2.20
2023-08-27T10:47:38.201Z,2.25
2023-08-27T10:50:05.716Z,2.28
2023-08-27T10:52:48.001Z,1.67
2023-08-27T10:55:14.600Z,1.42
2023-08-27T10:57:41.147Z,1.15
2023-08-27T11:00:11.480Z,1.20
2023-08-27T11:03:00.243Z,0.85
2023-08-27T11:05:30.396Z,1.05
2023-08-27T11:08:00.657Z,0.80
2023-08-27T11:10:34.032Z,0.80
2023-08-27T11:13:00.635Z,0.70
2023-08-27T11:15:29.573Z,0.50
2023-08-27T11:17:56.590Z,0.45
2023-08-27T11:20:26.938Z,0.40
2023-08-27T11:23:00.783Z,0.40
2023-08-27T11:25:30.516Z,0.40
2023-08-27T11:28:01.745Z,0.40
2023-08-27T11:30:29.292Z,0.30
2023-08-27T11:32:56.344Z,0.40
2023-08-27T11:35:29.612Z,0.30
2023-08-27T11:37:56.851Z,0.30
2023-08-27T11:40:24.558Z,0.70
2023-08-27T11:42:52.329Z,0.50
2023-08-27T11:45:19.328Z,0.30
2023-08-27T11:47:45.986Z,0.20
2023-08-27T11:50:14.329Z,0.30
2023-08-27T11:52:41.219Z,0.40
2023-08-27T11:55:08.736Z,0.30
2023-08-27T11:57:35.448Z,0.30
2023-08-27T12:00:12.507Z,0.50
2023-08-27T12:02:42.733Z,0.38
2023-08-27T12:05:10.045Z,0.32
2023-08-27T12:07:36.890Z,0.40
2023-08-27T12:10:14.014Z,0.40
2023-08-27T12:12:41.413Z,0.30
2023-08-27T12:15:08.750Z,0.30
2023-08-27T12:17:36.256Z,0.30
2023-08-27T12:20:06.553Z,0.30
2023-08-27T12:22:43.511Z,0.28
2023-08-27T12:25:10.389Z,0.30
2023-08-27T12:27:37.060Z,0.40
2023-08-27T12:30:05.528Z,0.30
2023-08-27T12:32:34.263Z,0.50
2023-08-27T12:35:01.517Z,0.40
2023-08-27T12:37:28.886Z,0.20
2023-08-27T12:39:57.252Z,0.30
2023-08-27T12:42:26.359Z,0.52
2023-08-27T12:44:54.513Z,0.40
2023-08-27T12:47:21.735Z,0.63
2023-08-27T12:49:48.679Z,0.80
2023-08-27T12:52:15.473Z,0.77
2023-08-27T12:54:43.128Z,1.10
2023-08-27T12:57:10.643Z,0.70
2023-08-27T12:59:37.257Z,0.80
2023-08-27T13:02:04.114Z,0.70
2023-08-27T13:04:30.960Z,0.90
2023-08-27T13:06:57.999Z,0.75
2023-08-27T13:09:25.817Z,0.77
2023-08-27T13:11:52.872Z,0.50
2023-08-27T13:14:19.914Z,0.70
2023-08-27T13:16:48.679Z,0.60
2023-08-27T13:19:16.112Z,0.52
2023-08-27T13:21:45.797Z,0.45
2023-08-27T13:24:12.956Z,0.40
2023-08-27T13:26:39.768Z,0.52
2023-08-27T13:29:06.442Z,0.60
2023-08-27T13:31:33.710Z,0.60
2023-08-27T13:34:00.694Z,0.60
2023-08-27T13:36:27.580Z,0.40
2023-08-27T13:38:54.323Z,0.22
2023-08-27T13:41:21.318Z,0.30
2023-08-27T13:43:47.937Z,0.20
2023-08-27T13:46:14.965Z,0.20
2023-08-27T13:48:41.763Z,0.20
2023-08-27T13:51:08.606Z,0.20
2023-08-27T13:53:35.273Z,0.32
2023-08-27T13:56:01.961Z,0.30
2023-08-27T13:58:30.468Z,0.40
2023-08-27T14:00:57.919Z,0.40
2023-08-27T14:03:25.055Z,0.30
2023-08-27T14:05:51.890Z,0.40
2023-08-27T14:08:25.428Z,0.50
2023-08-27T14:10:52.465Z,0.40
2023-08-27T14:13:19.091Z,0.40
2023-08-27T14:15:46.144Z,0.43
2023-08-27T14:18:12.908Z,0.50
2023-08-27T14:20:39.578Z,0.60
2023-08-27T14:23:06.317Z,0.65
2023-08-27T14:25:32.996Z,0.40
2023-08-27T14:28:00.161Z,0.60
2023-08-27T14:30:26.971Z,0.80
2023-08-27T14:32:53.763Z,0.65
2023-08-27T14:35:20.407Z,0.60
2023-08-27T14:37:47.088Z,0.70
2023-08-27T14:40:13.623Z,1.15
2023-08-27T14:42:40.432Z,0.85
2023-08-27T14:45:07.310Z,0.95
2023-08-27T14:47:33.909Z,1.20
2023-08-27T14:50:00.802Z,1.58
2023-08-27T14:52:27.723Z,1.60
2023-08-27T14:54:54.686Z,1.90
2023-08-27T14:57:21.785Z,2.67
2023-08-27T14:59:48.590Z,3.85
2023-08-27T15:02:15.571Z,4.25
2023-08-27T15:04:42.965Z,2.00
2023-08-27T15:07:09.699Z,1.60
2023-08-27T15:09:36.361Z,2.00
2023-08-27T15:12:03.538Z,2.00
2023-08-27T15:14:30.173Z,2.40
2023-08-27T15:16:56.803Z,1.67
2023-08-27T15:19:23.445Z,2.35
2023-08-27T15:21:50.175Z,1.75
2023-08-27T15:24:16.756Z,1.80
2023-08-27T15:26:44.789Z,1.70
2023-08-27T15:29:11.551Z,1.40
2023-08-27T15:31:38.311Z,1.60
2023-08-27T15:34:06.612Z,0.98
2023-08-27T15:36:34.251Z,1.30
2023-08-27T15:39:00.923Z,1.55
2023-08-27T15:41:29.811Z,1.58
2023-08-27T15:43:58.358Z,1.77
2023-08-27T15:46:27.501Z,13.05
2023-08-27T15:48:54.736Z,8.60
2023-08-27T15:51:21.895Z,2.00
2023-08-27T15:53:48.624Z,2.17
2023-08-27T15:56:15.608Z,2.28
2023-08-27T15:58:42.162Z,1.98
2023-08-27T16:01:08.812Z,1.90
2023-08-27T16:03:35.601Z,2.13
2023-08-27T16:06:04.921Z,1.73
2023-08-27T16:08:31.512Z,2.00
2023-08-27T16:10:58.531Z,1.83
2023-08-27T16:13:25.280Z,1.60
2023-08-27T16:15:51.840Z,1.50
2023-08-27T16:18:18.378Z,1.73
2023-08-27T16:20:46.345Z,1.60
2023-08-27T16:23:12.996Z,1.77
2023-08-27T16:25:39.620Z,1.70
2023-08-27T16:28:06.307Z,1.58
2023-08-27T16:30:33.015Z,1.67
2023-08-27T16:32:59.676Z,1.75
2023-08-27T16:35:26.873Z,1.60
2023-08-27T16:37:53.493Z,1.55
2023-08-27T16:40:20.691Z,1.42
2023-08-27T16:42:47.280Z,1.52
2023-08-27T16:45:13.771Z,1.48
2023-08-27T16:47:40.528Z,1.63
2023-08-27T16:50:07.138Z,1.38
2023-08-27T16:52:33.822Z,1.65
2023-08-27T16:55:00.362Z,1.98
2023-08-27T16:57:26.968Z,1.80
2023-08-27T16:59:53.606Z,2.22
2023-08-27T17:02:20.184Z,1.60
2023-08-27T17:04:46.745Z,1.42
2023-08-27T17:07:13.269Z,1.67
2023-08-27T17:09:39.912Z,1.60
2023-08-27T17:12:06.924Z,1.65
2023-08-27T17:14:33.693Z,1.60
2023-08-27T17:17:00.208Z,1.58
2023-08-27T17:19:26.776Z,1.58
2023-08-27T17:21:53.518Z,1.55
2023-08-27T17:24:20.059Z,1.52
2023-08-27T17:26:46.762Z,1.92
2023-08-27T17:29:13.416Z,1.60
2023-08-27T17:31:40.251Z,1.50
2023-08-27T17:34:07.168Z,1.80
2023-08-27T17:36:34.728Z,1.40
2023-08-27T17:39:01.493Z,1.90
2023-08-27T17:41:29.793Z,1.48
2023-08-27T17:43:56.463Z,1.45
2023-08-27T17:46:23.937Z,1.60
2023-08-27T17:48:50.489Z,1.88
2023-08-27T17:51:17.355Z,1.92
2023-08-27T17:53:43.930Z,1.80
2023-08-27T17:56:10.652Z,1.50
2023-08-27T17:58:37.582Z,1.60
2023-08-27T18:01:05.294Z,1.65
2023-08-27T18:03:32.702Z,1.85
2023-08-27T18:05:59.392Z,1.83
2023-08-27T18:08:26.136Z,2.10
2023-08-27T18:10:52.810Z,1.77
2023-08-27T18:13:19.363Z,1.90
2023-08-27T18:15:46.031Z,2.20
2023-08-27T18:18:12.758Z,1.90
2023-08-27T18:20:39.725Z,2.08
2023-08-27T18:23:06.496Z,1.70
2023-08-27T18:25:33.031Z,2.20
2023-08-27T18:28:00.531Z,2.42
2023-08-27T18:30:34.782Z,2.30
2023-08-27T18:33:02.944Z,2.30
2023-08-27T18:35:33.257Z,2.40
2023-08-27T18:38:01.463Z,2.40
2023-08-27T18:40:28.291Z,2.72
2023-08-27T18:42:55.284Z,2.40
2023-08-27T18:45:21.939Z,2.50
2023-08-27T18:47:48.575Z,2.50
2023-08-27T18:50:15.240Z,3.15
2023-08-27T18:52:41.783Z,2.70
2023-08-27T18:55:08.672Z,2.55
2023-08-27T18:57:36.831Z,2.80
2023-08-27T19:00:05.067Z,2.90
2023-08-27T19:02:31.816Z,2.78
2023-08-27T19:04:58.635Z,2.72
2023-08-27T19:07:25.308Z,2.55
2023-08-27T19:09:51.878Z,2.28
2023-08-27T19:12:18.747Z,6.45
2023-08-27T19:14:45.419Z,4.03
2023-08-27T19:17:12.401Z,3.70
2023-08-27T19:19:39.134Z,2.58
2023-08-27T19:22:05.851Z,3.00
2023-08-27T19:24:32.574Z,2.83
2023-08-27T19:26:59.431Z,2.90
2023-08-27T19:29:26.274Z,2.85
2023-08-27T19:31:52.920Z,2.83
2023-08-27T19:34:19.505Z,2.70
2023-08-27T19:36:46.235Z,2.72
2023-08-27T19:39:13.418Z,2.35
2023-08-27T19:41:40.245Z,2.30
2023-08-27T19:44:06.832Z,2.50
2023-08-27T19:46:33.409Z,2.38
2023-08-27T19:49:00.111Z,2.58
2023-08-27T19:51:26.952Z,2.20
2023-08-27T19:53:53.510Z,2.22
2023-08-27T19:56:20.472Z,2.13
2023-08-27T19:58:47.076Z,2.13
2023-08-27T20:01:13.951Z,2.20
2023-08-27T20:03:40.681Z,1.75
2023-08-27T20:06:09.814Z,2.03
2023-08-27T20:08:36.605Z,2.15
2023-08-27T20:11:04.519Z,2.08
2023-08-27T20:13:34.173Z,1.98
2023-08-27T20:16:00.979Z,1.80
2023-08-27T20:18:27.643Z,2.10
2023-08-27T20:20:56.986Z,2.03
2023-08-27T20:23:24.218Z,1.83
2023-08-27T20:25:51.185Z,1.80
2023-08-27T20:28:19.218Z,2.15
2023-08-27T20:30:49.360Z,1.90
2023-08-27T20:33:15.986Z,1.33
2023-08-27T20:35:42.966Z,1.60
2023-08-27T20:38:09.741Z,1.60
2023-08-27T20:40:39.459Z,1.20
2023-08-27T20:43:06.361Z,1.20
2023-08-27T20:45:33.524Z,1.05
2023-08-27T20:48:00.417Z,1.00
2023-08-27T20:50:27.168Z,1.13
2023-08-27T20:52:54.332Z,0.77
2023-08-27T20:55:21.081Z,0.90
2023-08-27T20:57:47.649Z,0.90
2023-08-27T21:00:14.312Z,0.70
2023-08-27T21:02:41.724Z,0.90
2023-08-27T21:05:08.441Z,1.13
2023-08-27T21:07:35.099Z,0.98
2023-08-27T21:10:01.651Z,1.20
2023-08-27T21:12:28.304Z,1.17
2023-08-27T21:14:54.933Z,1.50
2023-08-27T21:17:21.494Z,1.60
2023-08-27T21:19:48.156Z,2.00
2023-08-27T21:22:15.228Z,1.95
2023-08-27T21:24:41.897Z,2.22
2023-08-27T21:27:08.412Z,2.33
2023-08-27T21:29:35.101Z,1.98
2023-08-27T21:32:01.635Z,2.05
2023-08-27T21:34:28.377Z,2.20
2023-08-27T21:36:54.907Z,2.20
2023-08-27T21:39:21.793Z,2.35
2023-08-27T21:41:48.420Z,2.63
2023-08-27T21:44:15.240Z,3.00
2023-08-27T21:46:41.869Z,2.35
2023-08-27T21:49:12.439Z,2.28
2023-08-27T21:51:39.100Z,2.75
2023-08-27T21:54:05.759Z,2.20
2023-08-27T21:56:32.358Z,2.15
2023-08-27T21:58:59.049Z,2.60
2023-08-27T22:01:25.858Z,2.80
2023-08-27T22:03:52.505Z,2.75
2023-08-27T22:06:19.073Z,2.58
2023-08-27T22:08:45.609Z,1.95
2023-08-27T22:11:12.169Z,2.58
2023-08-27T22:13:38.909Z,2.45
2023-08-27T22:16:05.546Z,2.35
2023-08-27T22:18:32.172Z,2.53
2023-08-27T22:21:00.598Z,2.22
2023-08-27T22:23:27.265Z,2.08
2023-08-27T22:25:53.806Z,2.03
2023-08-27T22:28:20.594Z,2.25
2023-08-27T22:30:47.371Z,2.03
2023-08-27T22:33:13.902Z,1.52
2023-08-27T22:35:40.832Z,1.77
2023-08-27T22:38:08.771Z,1.85
2023-08-27T22:40:35.292Z,1.60
2023-08-27T22:43:02.059Z,1.45
2023-08-27T22:45:28.929Z,1.55
2023-08-27T22:47:55.535Z,1.70
2023-08-27T22:50:22.354Z,1.50
2023-08-27T22:52:49.161Z,1.10
2023-08-27T22:55:15.805Z,1.60
2023-08-27T22:57:42.530Z,1.30
2023-08-27T23:00:10.103Z,1.00
2023-08-27T23:02:36.725Z,1.10
2023-08-27T23:05:03.373Z,1.05
2023-08-27T23:07:30.141Z,0.82
2023-08-27T23:09:56.693Z,0.82
2023-08-27T23:12:23.261Z,1.13
2023-08-27T23:14:49.795Z,0.98
2023-08-27T23:17:16.322Z,1.10
2023-08-27T23:19:42.866Z,1.25
2023-08-27T23:22:09.499Z,1.17
2023-08-27T23:24:36.240Z,1.10
2023-08-27T23:27:03.933Z,1.02
2023-08-27T23:29:31.744Z,0.90
2023-08-27T23:31:58.793Z,1.23
2023-08-27T23:34:25.518Z,1.10
2023-08-27T23:36:52.055Z,1.20
2023-08-27T23:39:19.079Z,1.27
2023-08-27T23:41:45.628Z,0.98
2023-08-27T23:44:12.336Z,0.95
2023-08-27T23:46:39.014Z,0.85
2023-08-27T23:49:05.631Z,1.10
2023-08-27T23:51:32.186Z,1.52
2023-08-27T23:53:58.749Z,1.20
2023-08-27T23:56:25.409Z,1.30
2023-08-27T23:58:52.016Z,1.23
